createdAt,value
2018-01-27T00:00:03.310Z,33.10
2018-01-27T00:01:03.305Z,33.20
2018-01-27T00:02:03.292Z,32.50
2018-01-27T00:03:03.349Z,33.70
2018-01-27T00:04:03.284Z,33.60
2018-01-27T00:05:03.276Z,33.20
2018-01-27T00:06:03.267Z,34.90
2018-01-27T00:07:03.264Z,34.30
2018-01-27T00:08:03.284Z,33.60
2018-01-27T00:09:03.250Z,34.40
2018-01-27T00:10:03.251Z,33.20
2018-01-27T00:11:03.240Z,33.60
2018-01-27T00:12:03.236Z,33.90
2018-01-27T00:13:03.223Z,33.30
2018-01-27T00:14:03.223Z,33.90
2018-01-27T00:15:03.217Z,33.30
2018-01-27T00:16:03.219Z,32.60
2018-01-27T00:17:03.201Z,33.40
2018-01-27T00:18:03.192Z,33.10
2018-01-27T00:19:03.189Z,33.60
2018-01-27T00:20:03.186Z,33.40
2018-01-27T00:21:03.172Z,33.30
2018-01-27T00:22:03.172Z,34.10
2018-01-27T00:23:03.169Z,33.90
2018-01-27T00:24:03.164Z,34.40
2018-01-27T00:25:03.159Z,34.40
2018-01-27T00:26:03.147Z,33.90
2018-01-27T00:27:03.143Z,33.70
2018-01-27T00:28:03.140Z,34.90
2018-01-27T00:29:03.128Z,34.10
2018-01-27T00:30:03.124Z,34.10
2018-01-27T00:31:03.112Z,34.70
2018-01-27T00:32:03.112Z,35.10
2018-01-27T00:33:03.101Z,34.60
2018-01-27T00:34:03.104Z,34.00
2018-01-27T00:35:03.095Z,34.80
2018-01-27T00:36:03.086Z,34.20
2018-01-27T00:37:03.077Z,33.40
2018-01-27T00:38:03.079Z,34.90
2018-01-27T00:39:03.070Z,34.50
2018-01-27T00:40:03.062Z,34.30
2018-01-27T00:41:03.062Z,34.60
2018-01-27T00:42:03.046Z,34.20
2018-01-27T00:43:03.044Z,33.80
2018-01-27T00:44:03.044Z,34.20
2018-01-27T00:45:03.033Z,34.10
2018-01-27T00:46:03.024Z,32.60
2018-01-27T00:47:03.020Z,34.50
2018-01-27T00:48:03.017Z,34.00
2018-01-27T00:49:03.004Z,33.00
2018-01-27T00:50:03.008Z,33.30
2018-01-27T00:51:02.997Z,32.70
2018-01-27T00:52:02.993Z,33.70
2018-01-27T00:53:02.986Z,33.10
2018-01-27T00:54:02.982Z,33.90
2018-01-27T00:55:02.971Z,33.40
2018-01-27T00:56:02.968Z,32.80
2018-01-27T00:57:02.963Z,32.80
2018-01-27T00:58:02.954Z,32.30
2018-01-27T00:59:02.952Z,34.00
2018-01-27T01:00:02.946Z,34.50
2018-01-27T01:01:02.934Z,34.50
2018-01-27T01:02:02.928Z,33.90
2018-01-27T01:03:02.917Z,33.10
2018-01-27T01:04:02.917Z,34.90
2018-01-27T01:05:02.907Z,34.20
2018-01-27T01:06:02.909Z,33.90
2018-01-27T01:07:02.899Z,33.70
2018-01-27T01:08:02.888Z,34.50
2018-01-27T01:09:02.881Z,35.00
2018-01-27T01:10:02.886Z,34.50
2018-01-27T01:11:02.873Z,34.10
2018-01-27T01:12:02.870Z,33.80
2018-01-27T01:13:02.859Z,34.40
2018-01-27T01:14:02.849Z,34.10
2018-01-27T01:15:02.847Z,34.60
2018-01-27T01:16:02.843Z,34.80
2018-01-27T01:17:02.835Z,34.00
2018-01-27T01:18:02.828Z,35.50
2018-01-27T01:19:02.821Z,35.00
2018-01-27T01:20:02.814Z,34.90
2018-01-27T01:21:02.810Z,35.10
2018-01-27T01:22:02.805Z,35.90
2018-01-27T01:23:02.802Z,36.60
2018-01-27T01:24:02.800Z,35.50
2018-01-27T01:25:02.779Z,37.10
2018-01-27T01:26:02.777Z,35.40
2018-01-27T01:27:02.771Z,35.10
2018-01-27T01:28:02.765Z,36.30
2018-01-27T01:29:02.756Z,35.00
2018-01-27T01:30:02.749Z,35.00
2018-01-27T01:31:02.745Z,35.40
2018-01-27T01:32:02.751Z,35.70
2018-01-27T01:33:02.734Z,35.00
2018-01-27T01:34:02.722Z,36.50
2018-01-27T01:35:02.717Z,35.80
2018-01-27T01:36:02.712Z,35.90
2018-01-27T01:37:02.702Z,35.40
2018-01-27T01:38:02.697Z,34.60
2018-01-27T01:39:02.691Z,35.60
2018-01-27T01:40:02.681Z,35.80
2018-01-27T01:41:02.674Z,37.70
2018-01-27T01:42:02.671Z,36.40
2018-01-27T01:43:02.664Z,37.80
2018-01-27T01:44:02.663Z,37.50
2018-01-27T01:45:02.656Z,36.60
2018-01-27T01:46:02.699Z,37.00
2018-01-27T01:47:02.636Z,36.60
2018-01-27T01:48:02.632Z,37.50
2018-01-27T01:49:02.624Z,37.70
2018-01-27T01:50:02.614Z,39.20
2018-01-27T01:51:02.614Z,37.20
2018-01-27T01:52:02.604Z,36.90
2018-01-27T01:53:02.595Z,37.00
2018-01-27T01:54:02.616Z,37.40
2018-01-27T01:55:02.589Z,36.90
2018-01-27T01:56:02.577Z,36.90
2018-01-27T01:57:02.570Z,36.20
2018-01-27T01:58:02.568Z,37.90
2018-01-27T01:59:02.575Z,37.50
2018-01-27T02:00:02.551Z,37.30
2018-01-27T02:01:02.548Z,37.40
2018-01-27T02:02:02.538Z,37.20
2018-01-27T02:03:02.528Z,38.60
2018-01-27T02:04:02.526Z,37.60
2018-01-27T02:05:02.526Z,38.40
2018-01-27T02:06:02.511Z,38.20
2018-01-27T02:07:02.504Z,38.60
2018-01-27T02:08:02.500Z,37.90
2018-01-27T02:09:02.488Z,39.40
2018-01-27T02:10:02.486Z,39.60
2018-01-27T02:11:02.479Z,38.10
2018-01-27T02:12:02.475Z,40.50
2018-01-27T02:13:02.461Z,40.30
2018-01-27T02:14:02.459Z,38.60
2018-01-27T02:15:02.451Z,39.20
2018-01-27T02:16:02.449Z,40.80
2018-01-27T02:17:02.442Z,39.60
2018-01-27T02:18:02.430Z,40.80
2018-01-27T02:19:02.425Z,40.00
2018-01-27T02:20:02.427Z,40.10
2018-01-27T02:21:02.416Z,40.50
2018-01-27T02:22:02.407Z,40.10
2018-01-27T02:23:02.395Z,41.30
2018-01-27T02:24:02.420Z,40.90
2018-01-27T02:25:02.387Z,41.30
2018-01-27T02:26:02.384Z,40.10
2018-01-27T02:27:02.375Z,42.40
2018-01-27T02:28:02.369Z,41.30
2018-01-27T02:29:02.361Z,41.40
2018-01-27T02:30:02.354Z,42.30
2018-01-27T02:31:02.345Z,42.10
2018-01-27T02:32:02.335Z,42.60
2018-01-27T02:33:02.328Z,41.50
2018-01-27T02:34:02.326Z,41.00
2018-01-27T02:35:02.320Z,41.80
2018-01-27T02:36:02.312Z,42.20
2018-01-27T02:37:02.305Z,41.50
2018-01-27T02:38:02.302Z,40.70
2018-01-27T02:39:02.298Z,42.00
2018-01-27T02:40:02.594Z,41.70
2018-01-27T02:41:02.287Z,42.10
2018-01-27T02:42:02.268Z,43.30
2018-01-27T02:43:02.262Z,42.10
2018-01-27T02:44:02.262Z,44.40
2018-01-27T02:45:02.260Z,43.80
2018-01-27T02:46:02.347Z,42.90
2018-01-27T02:47:02.237Z,43.00
2018-01-27T02:48:02.240Z,43.00
2018-01-27T02:49:02.233Z,42.60
2018-01-27T02:50:02.225Z,42.40
2018-01-27T02:51:02.217Z,43.70
2018-01-27T02:52:02.210Z,41.80
2018-01-27T02:53:02.199Z,41.20
2018-01-27T02:54:02.196Z,42.50
2018-01-27T02:55:02.189Z,42.70
2018-01-27T02:56:02.185Z,43.40
2018-01-27T02:57:02.180Z,42.20
2018-01-27T02:58:02.184Z,45.00
2018-01-27T02:59:02.163Z,45.60
2018-01-27T03:00:02.161Z,44.90
2018-01-27T03:01:02.156Z,44.50
2018-01-27T03:02:02.141Z,44.60
2018-01-27T03:03:02.135Z,44.90
2018-01-27T03:04:02.126Z,42.70
2018-01-27T03:05:02.123Z,43.30
2018-01-27T03:06:02.117Z,45.30
2018-01-27T03:07:02.115Z,44.80
2018-01-27T03:08:02.104Z,45.30
2018-01-27T03:09:02.096Z,45.80
2018-01-27T03:10:02.092Z,42.70
2018-01-27T03:11:02.088Z,45.60
2018-01-27T03:12:02.084Z,45.30
2018-01-27T03:13:02.072Z,44.50
2018-01-27T03:14:02.066Z,47.10
2018-01-27T03:15:02.055Z,42.80
2018-01-27T03:16:02.058Z,42.60
2018-01-27T03:17:02.045Z,45.20
2018-01-27T03:18:02.041Z,44.40
2018-01-27T03:19:02.033Z,43.90
2018-01-27T03:20:02.037Z,44.50
2018-01-27T03:21:02.020Z,45.10
2018-01-27T03:22:02.015Z,44.60
2018-01-27T03:23:02.008Z,46.00
2018-01-27T03:24:01.994Z,46.10
2018-01-27T03:25:01.992Z,44.60
2018-01-27T03:26:01.985Z,46.50
2018-01-27T03:27:01.982Z,45.40
2018-01-27T03:28:01.974Z,42.90
2018-01-27T03:29:01.967Z,45.80
2018-01-27T03:30:01.958Z,44.90
2018-01-27T03:31:01.952Z,43.90
2018-01-27T03:32:01.952Z,43.00
2018-01-27T03:33:01.947Z,41.90
2018-01-27T03:34:01.936Z,42.70
2018-01-27T03:35:01.943Z,43.30
2018-01-27T03:36:01.920Z,46.00
2018-01-27T03:37:01.914Z,44.00
2018-01-27T03:38:01.909Z,43.80
2018-01-27T03:39:01.906Z,46.60
2018-01-27T03:40:01.889Z,43.80
2018-01-27T03:41:01.883Z,43.40
2018-01-27T03:42:01.892Z,46.90
2018-01-27T03:43:01.892Z,47.30
2018-01-27T03:44:01.872Z,44.90
2018-01-27T03:45:01.860Z,47.20
2018-01-27T03:46:01.849Z,44.50
2018-01-27T03:47:01.841Z,46.90
2018-01-27T03:48:01.843Z,46.10
2018-01-27T03:49:01.834Z,48.10
2018-01-27T03:50:01.827Z,49.50
2018-01-27T03:51:01.816Z,48.20
2018-01-27T03:52:01.809Z,47.70
2018-01-27T03:53:01.800Z,48.70
2018-01-27T03:54:01.795Z,48.90
2018-01-27T03:55:01.788Z,49.70
2018-01-27T03:56:01.780Z,49.50
2018-01-27T03:57:01.776Z,50.70
2018-01-27T03:58:01.769Z,51.50
2018-01-27T03:59:01.763Z,49.90
2018-01-27T04:00:01.755Z,50.20
2018-01-27T04:01:01.746Z,51.30
2018-01-27T04:02:01.740Z,50.10
2018-01-27T04:03:01.731Z,50.20
2018-01-27T04:04:01.980Z,51.70
2018-01-27T04:05:01.718Z,51.20
2018-01-27T04:06:01.712Z,50.40
2018-01-27T04:07:01.724Z,49.30
2018-01-27T04:08:01.695Z,49.60
2018-01-27T04:09:01.694Z,51.00
2018-01-27T04:10:01.692Z,50.30
2018-01-27T04:11:01.682Z,50.50
2018-01-27T04:12:01.666Z,49.60
2018-01-27T04:13:01.665Z,50.90
2018-01-27T04:14:01.656Z,51.50
2018-01-27T04:15:01.656Z,49.30
2018-01-27T04:16:01.647Z,50.00
2018-01-27T04:17:01.639Z,50.70
2018-01-27T04:18:01.629Z,51.90
2018-01-27T04:19:01.623Z,49.30
2018-01-27T04:20:01.620Z,48.50
2018-01-27T04:21:01.613Z,48.80
2018-01-27T04:22:01.607Z,50.00
2018-01-27T04:23:01.596Z,50.20
2018-01-27T04:24:01.592Z,49.30
2018-01-27T04:25:01.584Z,49.10
2018-01-27T04:26:01.579Z,49.50
2018-01-27T04:27:01.572Z,48.50
2018-01-27T04:28:01.565Z,48.80
2018-01-27T04:29:01.561Z,49.20
2018-01-27T04:30:01.560Z,47.70
2018-01-27T04:31:01.550Z,49.30
2018-01-27T04:32:01.542Z,49.00
2018-01-27T04:33:01.534Z,46.60
2018-01-27T04:34:01.527Z,49.10
2018-01-27T04:35:01.518Z,49.10
2018-01-27T04:36:01.513Z,49.60
2018-01-27T04:37:01.504Z,48.20
2018-01-27T04:38:01.503Z,48.00
2018-01-27T04:39:01.503Z,46.90
2018-01-27T04:40:01.497Z,49.80
2018-01-27T04:41:01.485Z,48.20
2018-01-27T04:42:01.475Z,49.00
2018-01-27T04:43:01.470Z,47.70
2018-01-27T04:44:01.464Z,49.30
2018-01-27T04:45:01.458Z,50.60
2018-01-27T04:46:01.451Z,49.40
2018-01-27T04:47:01.447Z,49.90
2018-01-27T04:48:01.442Z,47.40
2018-01-27T04:49:01.432Z,46.70
2018-01-27T04:50:01.430Z,48.00
2018-01-27T04:51:01.422Z,49.10
2018-01-27T04:52:01.412Z,46.70
2018-01-27T04:53:01.405Z,48.90
2018-01-27T04:54:01.407Z,49.50
2018-01-27T04:55:01.399Z,48.50
2018-01-27T04:56:01.390Z,48.30
2018-01-27T04:57:01.388Z,48.20
2018-01-27T04:58:01.376Z,48.30
2018-01-27T04:59:01.372Z,47.30
2018-01-27T05:00:01.371Z,48.40
2018-01-27T05:01:01.360Z,47.10
2018-01-27T05:02:01.350Z,47.60
2018-01-27T05:03:01.345Z,48.20
2018-01-27T05:04:01.338Z,48.00
2018-01-27T05:05:01.335Z,47.40
2018-01-27T05:06:01.333Z,46.30
2018-01-27T05:07:01.328Z,48.80
2018-01-27T05:08:01.318Z,47.60
2018-01-27T05:09:01.304Z,45.40
2018-01-27T05:10:01.303Z,45.90
2018-01-27T05:11:01.297Z,42.60
2018-01-27T05:12:01.309Z,45.20
2018-01-27T05:13:01.290Z,46.10
2018-01-27T05:14:01.278Z,46.10
2018-01-27T05:15:01.272Z,45.20
2018-01-27T05:16:01.273Z,47.00
2018-01-27T05:17:01.261Z,45.70
2018-01-27T05:18:01.250Z,46.40
2018-01-27T05:19:01.243Z,46.10
2018-01-27T05:20:01.240Z,47.00
2018-01-27T05:21:01.236Z,48.70
2018-01-27T05:22:01.230Z,46.30
2018-01-27T05:23:01.224Z,47.90
2018-01-27T05:24:01.213Z,48.90
2018-01-27T05:25:01.213Z,48.20
2018-01-27T05:26:01.206Z,46.80
2018-01-27T05:27:01.203Z,46.70
2018-01-27T05:28:01.448Z,46.20
2018-01-27T05:29:01.188Z,47.10
2018-01-27T05:30:01.181Z,45.80
2018-01-27T05:31:01.169Z,47.00
2018-01-27T05:32:01.171Z,47.00
2018-01-27T05:33:01.165Z,45.60
2018-01-27T05:34:01.151Z,44.40
2018-01-27T05:35:01.148Z,45.60
2018-01-27T05:36:01.138Z,43.00
2018-01-27T05:37:01.136Z,40.50
2018-01-27T05:38:01.135Z,42.30
2018-01-27T05:39:01.127Z,39.90
2018-01-27T05:40:01.114Z,40.00
2018-01-27T05:41:01.108Z,41.30
2018-01-27T05:42:01.106Z,40.20
2018-01-27T05:43:01.103Z,40.30
2018-01-27T05:44:01.093Z,38.10
2018-01-27T05:45:01.086Z,38.90
2018-01-27T05:46:01.085Z,39.40
2018-01-27T05:47:01.084Z,39.60
2018-01-27T05:48:01.089Z,36.70
2018-01-27T05:49:01.065Z,37.60
2018-01-27T05:50:01.054Z,38.20
2018-01-27T05:51:01.052Z,37.90
2018-01-27T05:52:01.047Z,38.80
2018-01-27T05:53:01.034Z,39.00
2018-01-27T05:54:01.038Z,39.80
2018-01-27T05:55:01.028Z,39.90
2018-01-27T05:56:01.025Z,40.70
2018-01-27T05:57:01.028Z,38.70
2018-01-27T05:58:01.007Z,40.00
2018-01-27T05:59:01.001Z,40.60
2018-01-27T06:00:00.998Z,38.00
2018-01-27T06:01:00.989Z,40.30
2018-01-27T06:02:00.981Z,41.00
2018-01-27T06:03:00.973Z,39.10
2018-01-27T06:04:00.970Z,40.00
2018-01-27T06:05:00.962Z,40.20
2018-01-27T06:06:00.958Z,42.20
2018-01-27T06:07:00.945Z,40.60
2018-01-27T06:08:00.941Z,39.90
2018-01-27T06:09:00.934Z,41.40
2018-01-27T06:10:00.932Z,40.20
2018-01-27T06:11:00.930Z,41.80
2018-01-27T06:12:00.915Z,41.90
2018-01-27T06:13:00.909Z,43.20
2018-01-27T06:14:00.907Z,39.90
2018-01-27T06:15:00.902Z,43.00
2018-01-27T06:16:00.895Z,42.50
2018-01-27T06:17:00.884Z,41.20
2018-01-27T06:18:00.878Z,41.30
2018-01-27T06:19:00.873Z,40.90
2018-01-27T06:20:00.868Z,43.20
2018-01-27T06:21:00.860Z,41.60
2018-01-27T06:22:00.849Z,41.20
2018-01-27T06:23:00.842Z,42.00
2018-01-27T06:24:00.834Z,41.80
2018-01-27T06:25:00.826Z,40.50
2018-01-27T06:26:00.829Z,39.00
2018-01-27T06:27:00.824Z,40.90
2018-01-27T06:28:00.808Z,40.50
2018-01-27T06:29:00.800Z,42.90
2018-01-27T06:30:00.799Z,41.60
2018-01-27T06:31:00.793Z,42.40
2018-01-27T06:32:00.792Z,43.40
2018-01-27T06:33:00.782Z,42.80
2018-01-27T06:34:00.774Z,43.00
2018-01-27T06:35:00.763Z,40.70
2018-01-27T06:36:00.766Z,41.70
2018-01-27T06:37:00.758Z,43.60
2018-01-27T06:38:00.745Z,43.70
2018-01-27T06:39:00.736Z,43.20
2018-01-27T06:40:00.735Z,42.50
2018-01-27T06:41:00.724Z,41.80
2018-01-27T06:42:00.722Z,41.50
2018-01-27T06:43:00.716Z,42.00
2018-01-27T06:44:00.704Z,42.60
2018-01-27T06:45:00.697Z,42.60
2018-01-27T06:46:00.700Z,43.10
2018-01-27T06:47:00.694Z,39.00
2018-01-27T06:48:00.685Z,40.50
2018-01-27T06:49:00.678Z,41.60
2018-01-27T06:50:00.670Z,41.10
2018-01-27T06:51:00.663Z,42.80
2018-01-27T06:52:00.658Z,40.10
2018-01-27T06:53:00.649Z,41.30
2018-01-27T06:54:00.638Z,41.70
2018-01-27T06:55:00.633Z,41.00
2018-01-27T06:56:00.629Z,40.60
2018-01-27T06:57:00.650Z,41.00
2018-01-27T06:58:00.723Z,41.30
2018-01-27T06:59:00.615Z,41.00
2018-01-27T07:00:00.603Z,39.40
2018-01-27T07:01:00.595Z,40.20
2018-01-27T07:02:00.598Z,43.00
2018-01-27T07:03:00.590Z,40.30
2018-01-27T07:04:00.580Z,40.60
2018-01-27T07:05:00.574Z,39.60
2018-01-27T07:06:00.562Z,39.80
2018-01-27T07:07:00.566Z,39.40
2018-01-27T07:08:00.557Z,38.90
2018-01-27T07:09:00.551Z,39.80
2018-01-27T07:10:00.540Z,37.80
2018-01-27T07:11:00.535Z,39.40
2018-01-27T07:12:00.526Z,39.60
2018-01-27T07:13:00.519Z,40.20
2018-01-27T07:14:00.516Z,41.30
2018-01-27T07:15:00.510Z,40.40
2018-01-27T07:16:00.539Z,40.40
2018-01-27T07:17:00.497Z,39.80
2018-01-27T07:18:00.497Z,41.60
2018-01-27T07:19:00.489Z,41.40
2018-01-27T07:20:00.484Z,38.00
2018-01-27T07:21:00.474Z,39.80
2018-01-27T07:22:00.466Z,39.80
2018-01-27T07:23:00.458Z,41.30
2018-01-27T07:24:00.455Z,40.60
2018-01-27T07:25:00.451Z,41.30
2018-01-27T07:26:00.443Z,41.00
2018-01-27T07:27:00.430Z,40.80
2018-01-27T07:28:00.426Z,42.60
2018-01-27T07:29:00.424Z,42.00
2018-01-27T07:30:00.419Z,43.10
2018-01-27T07:31:00.416Z,42.70
2018-01-27T07:32:00.403Z,43.00
2018-01-27T07:33:00.398Z,42.80
2018-01-27T07:34:00.394Z,42.80
2018-01-27T07:35:00.387Z,42.10
2018-01-27T07:36:00.379Z,41.40
2018-01-27T07:37:00.374Z,42.50
2018-01-27T07:38:00.362Z,41.40
2018-01-27T07:39:00.355Z,40.50
2018-01-27T07:40:00.356Z,42.30
2018-01-27T07:41:00.350Z,41.10
2018-01-27T07:42:00.340Z,42.50
2018-01-27T07:43:00.337Z,41.90
2018-01-27T07:44:00.333Z,42.40
2018-01-27T07:45:00.322Z,40.90
2018-01-27T07:46:00.320Z,42.30
2018-01-27T07:47:00.310Z,42.40
2018-01-27T07:48:00.304Z,41.50
2018-01-27T07:49:00.300Z,40.10
2018-01-27T07:50:00.293Z,43.50
2018-01-27T07:51:00.289Z,45.40
2018-01-27T07:52:00.285Z,44.30
2018-01-27T07:53:00.272Z,41.00
2018-01-27T07:54:00.268Z,43.40
2018-01-27T07:55:00.260Z,41.50
2018-01-27T07:56:00.258Z,42.10
2018-01-27T07:57:00.249Z,40.90
2018-01-27T07:58:00.239Z,43.40
2018-01-27T07:59:00.232Z,42.70
2018-01-27T08:00:00.224Z,42.60
2018-01-27T08:01:00.221Z,42.20
2018-01-27T08:02:00.226Z,40.90
2018-01-27T08:03:00.209Z,41.50
2018-01-27T08:04:00.197Z,42.60
2018-01-27T08:05:00.194Z,41.80
2018-01-27T08:06:00.189Z,44.50
2018-01-27T08:07:00.183Z,41.40
2018-01-27T08:08:00.180Z,42.60
2018-01-27T08:09:00.172Z,40.90
2018-01-27T08:10:00.170Z,42.70
2018-01-27T08:11:00.175Z,40.50
2018-01-27T08:12:00.206Z,44.00
2018-01-27T08:13:00.148Z,43.40
2018-01-27T08:14:00.137Z,41.30
2018-01-27T08:15:00.125Z,44.50
2018-01-27T08:16:00.128Z,42.70
2018-01-27T08:17:00.118Z,43.10
2018-01-27T08:18:00.112Z,42.10
2018-01-27T08:19:00.109Z,42.70
2018-01-27T08:20:00.100Z,43.30
2018-01-27T08:21:00.088Z,43.10
2018-01-27T08:22:00.085Z,41.80
2018-01-27T08:23:00.081Z,40.80
2018-01-27T08:24:00.070Z,43.40
2018-01-27T08:25:00.070Z,44.30
2018-01-27T08:26:00.053Z,43.20
2018-01-27T08:27:00.047Z,44.50
2018-01-27T08:28:00.050Z,43.60
2018-01-27T08:29:00.039Z,44.30
2018-01-27T08:30:00.042Z,43.90
2018-01-27T08:31:00.027Z,43.80
2018-01-27T08:32:00.020Z,42.80
2018-01-27T08:33:00.007Z,44.20
2018-01-27T08:34:00.010Z,44.80
2018-01-27T08:35:00.001Z,45.00
2018-01-27T08:35:59.985Z,44.20
2018-01-27T08:36:59.984Z,42.30
2018-01-27T08:37:59.977Z,42.40
2018-01-27T08:38:59.970Z,42.10
2018-01-27T08:39:59.966Z,43.10
2018-01-27T08:40:59.960Z,42.30
2018-01-27T08:41:59.949Z,43.80
2018-01-27T08:42:59.943Z,45.10
2018-01-27T08:43:59.941Z,44.00
2018-01-27T08:44:59.936Z,43.30
2018-01-27T08:45:59.921Z,44.40
2018-01-27T08:46:59.913Z,44.60
2018-01-27T08:47:59.912Z,45.90
2018-01-27T08:48:59.904Z,42.80
2018-01-27T08:49:59.903Z,43.50
2018-01-27T08:50:59.893Z,42.60
2018-01-27T08:51:59.890Z,46.40
2018-01-27T08:52:59.878Z,45.10
2018-01-27T08:53:59.868Z,44.50
2018-01-27T08:54:59.860Z,46.00
2018-01-27T08:55:59.852Z,45.50
2018-01-27T08:56:59.844Z,44.00
2018-01-27T08:57:59.843Z,45.90
2018-01-27T08:58:59.842Z,46.30
2018-01-27T08:59:59.831Z,44.10
2018-01-27T09:00:59.821Z,46.00
2018-01-27T09:01:59.821Z,43.40
2018-01-27T09:02:59.812Z,43.30
2018-01-27T09:03:59.802Z,44.80
2018-01-27T09:04:59.802Z,44.00
2018-01-27T09:05:59.790Z,44.30
2018-01-27T09:06:59.778Z,45.00
2018-01-27T09:07:59.777Z,41.30
2018-01-27T09:08:59.769Z,43.90
2018-01-27T09:09:59.764Z,43.60
2018-01-27T09:10:59.758Z,44.20
2018-01-27T09:11:59.750Z,46.20
2018-01-27T09:12:59.741Z,46.10
2018-01-27T09:13:59.777Z,45.30
2018-01-27T09:14:59.733Z,39.40
2018-01-27T09:15:59.720Z,44.90
2018-01-27T09:16:59.719Z,45.40
2018-01-27T09:17:59.714Z,41.90
2018-01-27T09:18:59.703Z,43.80
2018-01-27T09:19:59.700Z,44.60
2018-01-27T09:20:59.693Z,41.70
2018-01-27T09:21:59.685Z,44.70
2018-01-27T09:22:59.676Z,43.90
2018-01-27T09:23:59.682Z,42.30
2018-01-27T09:24:59.672Z,43.50
2018-01-27T09:25:59.657Z,43.30
2018-01-27T09:26:59.651Z,42.80
2018-01-27T09:27:59.644Z,40.50
2018-01-27T09:28:59.641Z,39.90
2018-01-27T09:29:59.640Z,38.80
2018-01-27T09:30:59.628Z,38.50
2018-01-27T09:31:59.622Z,40.40
2018-01-27T09:32:59.613Z,42.00
2018-01-27T09:33:59.611Z,39.90
2018-01-27T09:34:59.607Z,39.50
2018-01-27T09:35:59.603Z,37.50
2018-01-27T09:36:59.595Z,37.50
2018-01-27T09:37:59.587Z,38.20
2018-01-27T09:38:59.575Z,37.10
2018-01-27T09:39:59.573Z,37.00
2018-01-27T09:40:59.570Z,37.90
2018-01-27T09:41:59.564Z,38.30
2018-01-27T09:42:59.554Z,36.70
2018-01-27T09:43:59.547Z,39.40
2018-01-27T09:44:59.548Z,38.80
2018-01-27T09:45:59.538Z,39.50
2018-01-27T09:46:59.532Z,37.90
2018-01-27T09:47:59.525Z,37.00
2018-01-27T09:48:59.513Z,35.90
2018-01-27T09:49:59.517Z,35.90
2018-01-27T09:50:59.506Z,36.40
2018-01-27T09:51:59.502Z,35.70
2018-01-27T09:52:59.495Z,37.40
2018-01-27T09:53:59.488Z,33.90
2018-01-27T09:54:59.480Z,32.80
2018-01-27T09:55:59.482Z,26.90
2018-01-27T09:56:59.470Z,26.40
2018-01-27T09:57:59.561Z,28.30
2018-01-27T09:58:59.458Z,26.70
2018-01-27T09:59:59.451Z,29.70
2018-01-27T10:00:59.443Z,32.40
2018-01-27T10:01:59.444Z,31.60
2018-01-27T10:02:59.437Z,32.80
2018-01-27T10:03:59.425Z,33.40
2018-01-27T10:04:59.422Z,34.20
2018-01-27T10:05:59.417Z,34.60
2018-01-27T10:06:59.412Z,31.20
2018-01-27T10:07:59.410Z,31.60
2018-01-27T10:08:59.402Z,29.70
2018-01-27T10:09:59.392Z,26.70
2018-01-27T10:10:59.392Z,27.40
2018-01-27T10:11:59.387Z,21.30
2018-01-27T10:12:59.383Z,25.80
2018-01-27T10:13:59.374Z,25.40
2018-01-27T10:14:59.368Z,26.80
2018-01-27T10:15:59.368Z,25.40
2018-01-27T10:16:59.350Z,25.20
2018-01-27T10:17:59.349Z,26.40
2018-01-27T10:18:59.343Z,29.20
2018-01-27T10:19:59.337Z,30.00
2018-01-27T10:20:59.329Z,29.10
2018-01-27T10:21:59.329Z,27.40
2018-01-27T10:22:59.322Z,25.00
2018-01-27T10:23:59.320Z,25.60
2018-01-27T10:24:59.324Z,27.00
2018-01-27T10:25:59.305Z,21.50
2018-01-27T10:26:59.293Z,24.60
2018-01-27T10:27:59.292Z,28.20
2018-01-27T10:28:59.285Z,28.90
2018-01-27T10:29:59.278Z,29.30
2018-01-27T10:30:59.270Z,28.30
2018-01-27T10:31:59.266Z,29.90
2018-01-27T10:32:59.261Z,30.70
2018-01-27T10:33:59.261Z,29.90
2018-01-27T10:34:59.254Z,27.60
2018-01-27T10:35:59.244Z,28.20
2018-01-27T10:36:59.234Z,28.30
2018-01-27T10:37:59.232Z,27.10
2018-01-27T10:38:59.233Z,23.50
2018-01-27T10:39:59.227Z,29.90
2018-01-27T10:40:59.216Z,26.10
2018-01-27T10:41:59.210Z,16.80
2018-01-27T10:42:59.201Z,27.90
2018-01-27T10:43:59.199Z,22.00
2018-01-27T10:44:59.194Z,19.30
2018-01-27T10:45:59.183Z,23.50
2018-01-27T10:46:59.178Z,21.10
2018-01-27T10:47:59.169Z,15.70
2018-01-27T10:48:59.168Z,25.10
2018-01-27T10:49:59.161Z,28.80
2018-01-27T10:50:59.154Z,21.20
2018-01-27T10:51:59.147Z,29.30
2018-01-27T10:52:59.141Z,23.60
2018-01-27T10:53:59.137Z,23.90
2018-01-27T10:54:59.133Z,19.70
2018-01-27T10:55:59.127Z,18.50
2018-01-27T10:56:59.115Z,16.20
2018-01-27T10:57:59.109Z,23.80
2018-01-27T10:58:59.102Z,23.20
2018-01-27T10:59:59.094Z,27.70
2018-01-27T11:00:59.088Z,27.00
2018-01-27T11:01:59.086Z,24.10
2018-01-27T11:02:59.078Z,24.70
2018-01-27T11:03:59.076Z,20.90
2018-01-27T11:04:59.067Z,24.70
2018-01-27T11:05:59.056Z,21.50
2018-01-27T11:06:59.053Z,17.40
2018-01-27T11:07:59.045Z,28.80
2018-01-27T11:08:59.041Z,27.10
2018-01-27T11:09:59.228Z,32.50
2018-01-27T11:10:59.021Z,31.10
2018-01-27T11:11:59.019Z,23.90
2018-01-27T11:12:59.013Z,26.70
2018-01-27T11:13:59.009Z,25.90
2018-01-27T11:14:59.002Z,27.20
2018-01-27T11:15:58.993Z,26.20
2018-01-27T11:16:58.984Z,16.70
2018-01-27T11:17:58.981Z,22.40
2018-01-27T11:18:58.981Z,24.40
2018-01-27T11:19:58.968Z,26.70
2018-01-27T11:20:58.959Z,26.00
2018-01-27T11:21:58.955Z,26.50
2018-01-27T11:22:58.948Z,26.70
2018-01-27T11:23:58.943Z,24.00
2018-01-27T11:24:58.939Z,21.20
2018-01-27T11:25:58.925Z,21.20
2018-01-27T11:26:58.919Z,19.50
2018-01-27T11:27:59.009Z,21.00
2018-01-27T11:28:58.902Z,27.00
2018-01-27T11:29:58.901Z,26.70
2018-01-27T11:30:58.897Z,27.30
2018-01-27T11:31:58.886Z,24.50
2018-01-27T11:32:58.882Z,28.00
2018-01-27T11:33:58.877Z,27.70
2018-01-27T11:34:58.868Z,27.30
2018-01-27T11:35:58.866Z,24.70
2018-01-27T11:36:58.857Z,23.10
2018-01-27T11:37:58.844Z,27.70
2018-01-27T11:38:58.837Z,29.30
2018-01-27T11:39:58.834Z,25.70
2018-01-27T11:40:58.827Z,28.70
2018-01-27T11:41:58.816Z,30.30
2018-01-27T11:42:58.815Z,29.30
2018-01-27T11:43:58.805Z,27.10
2018-01-27T11:44:58.800Z,24.20
2018-01-27T11:45:59.046Z,27.50
2018-01-27T11:46:58.791Z,25.20
2018-01-27T11:47:58.784Z,21.90
2018-01-27T11:48:58.773Z,28.70
2018-01-27T11:49:58.770Z,26.90
2018-01-27T11:50:58.767Z,27.90
2018-01-27T11:51:58.754Z,22.80
2018-01-27T11:52:58.748Z,23.70
2018-01-27T11:53:58.736Z,26.70
2018-01-27T11:54:58.779Z,28.30
2018-01-27T11:55:58.731Z,28.30
2018-01-27T11:56:58.724Z,25.80
2018-01-27T11:57:58.712Z,23.60
2018-01-27T11:58:58.710Z,28.20
2018-01-27T11:59:58.697Z,23.00
2018-01-27T12:00:58.691Z,29.30
2018-01-27T12:01:58.690Z,30.60
2018-01-27T12:02:58.681Z,30.40
2018-01-27T12:03:58.673Z,30.90
2018-01-27T12:04:58.667Z,31.50
2018-01-27T12:05:58.666Z,31.90
2018-01-27T12:06:58.658Z,30.70
2018-01-27T12:07:58.650Z,31.20
2018-01-27T12:08:58.642Z,33.00
2018-01-27T12:09:58.635Z,30.40
2018-01-27T12:10:58.626Z,30.30
2018-01-27T12:11:58.625Z,31.30
2018-01-27T12:12:58.619Z,31.20
2018-01-27T12:13:58.610Z,30.90
2018-01-27T12:14:58.604Z,29.70
2018-01-27T12:15:58.897Z,28.30
2018-01-27T12:16:58.588Z,29.90
2018-01-27T12:17:58.589Z,27.10
2018-01-27T12:18:58.586Z,30.80
2018-01-27T12:19:58.570Z,21.80
2018-01-27T12:20:58.563Z,28.60
2018-01-27T12:21:58.962Z,29.40
2018-01-27T12:22:58.560Z,26.80
2018-01-27T12:23:58.554Z,27.80
2018-01-27T12:24:58.545Z,28.10
2018-01-27T12:25:58.533Z,25.50
2018-01-27T12:26:58.527Z,27.00
2018-01-27T12:27:58.827Z,30.70
2018-01-27T12:28:58.522Z,29.70
2018-01-27T12:29:58.512Z,28.70
2018-01-27T12:30:58.514Z,23.30
2018-01-27T12:31:58.513Z,28.60
2018-01-27T12:32:58.487Z,28.30
2018-01-27T12:33:58.788Z,28.20
2018-01-27T12:34:58.482Z,26.30
2018-01-27T12:35:58.470Z,28.50
2018-01-27T12:36:58.466Z,29.60
2018-01-27T12:37:58.462Z,29.10
2018-01-27T12:38:58.463Z,27.30
2018-01-27T12:39:58.847Z,23.90
2018-01-27T12:40:58.439Z,27.70
2018-01-27T12:41:58.434Z,22.60
2018-01-27T12:42:58.427Z,23.70
2018-01-27T12:43:58.422Z,26.30
2018-01-27T12:44:58.419Z,24.50
2018-01-27T12:45:58.709Z,24.60
2018-01-27T12:46:58.402Z,26.80
2018-01-27T12:47:58.391Z,26.90
2018-01-27T12:48:58.387Z,25.20
2018-01-27T12:49:58.383Z,23.30
2018-01-27T12:50:58.380Z,24.50
2018-01-27T12:51:58.666Z,25.70